VVTSRJAA

Guest
Details From VVTS - TAN SON NHAT INTL
To RJAA - NARITA INTL
Flight Number -
Tags decoded
Created
Modified
Stats Distance 11,819 nm / 21,890 km
Max Altitude 0 ft / 0 m
Waypoints 3
Social Downloads 5
Likes 0
Share VATSIM

Download

Looking for another format? Having issues loading an existing format? Contact us
Advertisement - Login to hide

Notes

Requested: VVTS EGLL KLAX PHNL RJAA

Route

VVTS KLAX RJAA

ID Type Via Altitude Latitude Longitude Leg Dist Tot Dist Heading (true) Name
O VVTS APT - 0 ft / 0 m 10.81875˚ 106.65173˚ - 0 nm - TAN SON NHAT INTL
KLAX APT - 0 ft / 0 m 33.94313˚ -118.40892˚ 7091 nm 7091 nm 42° / 128° Los Angeles Intl
O RJAA APT - 0 ft / 0 m 35.77655˚ 140.38277˚ 4727 nm 11819 nm 306° / 236° NARITA INTL

Altitude Profile

Advertisement - Login to hide

Weather


0- 5 10 15 20 25 30 35+ Temperature / ° C

Clouds and Precipitation
Forecast for 2017-12-13 18:00 UTC. Updated 2 hours ago

Ground ~20,000 ft ~40,000 ft Winds

VVTS

Details ICAO VVTS (SGN)
Name TAN SON NHAT INTL
Region Vietnam
Timezone Asia/Ho_Chi_Minh (UTC+7.0)
Stats Elevation 33 ft / 10 m (AMSL)
Location 10.818750° 106.651735°
Runways 2
Magnetic Variation 0.488° W

METAR

VVTS 131900Z 16005KT 130V210 9999 SCT015 FEW017CB 26/25 Q1010 NOSIG RMK CB/N/W

Decode

TAF

TAF VVTS 131700Z 1318/1424 17006KT 9999 SCT017 BECMG 1321/1322 VRB02KT 3000 BR BECMG 1400/1401 33006KT 9999 BECMG 1409/1410 16010KT TEMPO 1414/1417 5000 SHRA BKN013 FEW015CB

Decode

Departure Runways

ID Width Length Bearing (true) Bearing (mag) Surface Threshold Offset Overrun Length
07L 148 ft / 45 m 9,998 ft / 3,047 m 69.00° 69.49° Asphalt 0 ft / 0 m 1,040 ft / 317 m
07R 148 ft / 45 m 12,617 ft / 3,846 m 68.90° 69.39° Concrete 2,543 ft / 775 m 863 ft / 263 m
25L 148 ft / 45 m 12,617 ft / 3,846 m 248.90° 249.39° Concrete 0 ft / 0 m 1,027 ft / 313 m
25R 148 ft / 45 m 9,998 ft / 3,047 m 249.00° 249.49° Asphalt 0 ft / 0 m 1,053 ft / 321 m

RJAA

Details ICAO RJAA (NRT)
Name NARITA INTL
Region Japan
Timezone Asia/Tokyo (UTC+9.0)
Stats Elevation 141 ft / 43 m (AMSL)
Location 35.776552° 140.382770°
Runways 2
Magnetic Variation 7.405° W

METAR

RJAA 131900Z 31008KT 9999 FEW030 01/M08 Q1017 NOSIG

Decode

TAF

TAF RJAA 131705Z 1318/1500 32008KT 9999 FEW030= TAF RJBB 131706Z 1318/1500 34015KT 9999 FEW020 BKN040 BECMG 1415/1418 06008KT

Decode

Destination Runways

ID Width Length Bearing (true) Bearing (mag) Surface Threshold Offset Overrun Length
16L 196 ft / 60 m 7,162 ft / 2,183 m 149.61° 157.02° Asphalt 190 ft / 58 m 0 ft / 0 m
16R 196 ft / 60 m 13,142 ft / 4,006 m 149.61° 157.02° Asphalt 0 ft / 0 m 410 ft / 125 m
34L 196 ft / 60 m 13,142 ft / 4,006 m 329.62° 337.03° Asphalt 0 ft / 0 m 415 ft / 126 m
34R 196 ft / 60 m 7,162 ft / 2,183 m 329.62° 337.03° Asphalt 190 ft / 58 m 0 ft / 0 m

Approach Navaids

Runway Type Ident Frequency Range Bearing (true) Bearing (mag) Slope Elevation
16L Localiser ITM 110.70 MHz 18 nm / 33 km 149.62° 157.02° - 141 ft / 43 m (AMSL)
16L Glidescope ITM 110.70 MHz 10 nm / 19 km 149.62° 157.02° 3.00° 141 ft / 43 m (AMSL)
16L DME ITM 110.70 MHz 18 nm / 33 km - - - 145 ft / 44 m (AMSL)
16R Localiser IKF 111.50 MHz 18 nm / 33 km 149.63° 157.03° - 141 ft / 43 m (AMSL)
16R Glidescope IKF 111.50 MHz 10 nm / 19 km 149.62° 157.02° 3.00° 141 ft / 43 m (AMSL)
16R DME IKF 111.50 MHz 18 nm / 33 km - - - 145 ft / 44 m (AMSL)
34L Localiser IYQ 111.90 MHz 18 nm / 33 km 329.61° 337.01° - 141 ft / 43 m (AMSL)
34L Glidescope IYQ 111.90 MHz 10 nm / 19 km 329.62° 337.02° 3.00° 141 ft / 43 m (AMSL)
34L DME IYQ 111.90 MHz 18 nm / 33 km - - - 153 ft / 47 m (AMSL)
34R Localiser ITJ 110.90 MHz 18 nm / 33 km 329.62° 337.02° - 141 ft / 43 m (AMSL)
34R Glidescope ITJ 110.90 MHz 10 nm / 19 km 329.62° 337.02° 3.00° 141 ft / 43 m (AMSL)
34R DME ITJ 110.90 MHz 18 nm / 33 km - - - 148 ft / 45 m (AMSL)

Popular Alternatives